Time;durP1;ratioP1;P1;durP2;ratioP2;P2;SDS_P1;SDS_P2;PMS_P1;PMS_P2;Temp;Humidity;BMP_temperature;BMP_pressure;BME280_temperature;BME280_humidity;BME280_pressure;Samples;Min_cycle;Max_cycle;Signal;HPM_P1;HPM_P2
2023/09/30 00:01:31;;;;;;;14.48;1.90;;;11.70;99.90;;;;;;5021003;28;20065;-61
2023/09/30 00:04:00;;;;;;;10.32;1.98;;;11.60;99.90;;;;;;5017926;28;20057;-61
2023/09/30 00:06:29;;;;;;;13.73;2.33;;;11.60;99.90;;;;;;5031317;28;20160;-62
2023/09/30 00:08:57;;;;;;;16.15;2.90;;;11.60;99.90;;;;;;5031410;28;20058;-61
2023/09/30 00:11:24;;;;;;;12.88;2.30;;;11.60;99.90;;;;;;5029917;28;20053;-61
2023/09/30 00:13:52;;;;;;;9.57;1.67;;;11.50;99.90;;;;;;5031238;28;20052;-62
2023/09/30 00:16:20;;;;;;;14.15;1.90;;;11.50;99.90;;;;;;5027023;28;20044;-61
2023/09/30 00:18:47;;;;;;;23.30;2.58;;;11.40;99.90;;;;;;5021443;28;20380;-61
2023/09/30 00:21:15;;;;;;;13.65;2.53;;;11.40;99.90;;;;;;5044608;28;20072;-62
2023/09/30 00:23:43;;;;;;;14.77;2.20;;;11.40;99.90;;;;;;5025279;28;20054;-61
2023/09/30 00:26:11;;;;;;;13.20;1.95;;;11.40;99.90;;;;;;5028047;28;20072;-61
2023/09/30 00:28:40;;;;;;;15.07;2.83;;;11.40;99.90;;;;;;5030502;28;20049;-61
2023/09/30 00:31:11;;;;;;;16.02;2.35;;;11.40;99.90;;;;;;5028836;28;20056;-61
2023/09/30 00:33:38;;;;;;;19.13;2.40;;;11.40;99.90;;;;;;5030917;28;20397;-61
2023/09/30 00:36:10;;;;;;;21.20;2.28;;;11.40;99.90;;;;;;5027669;28;20054;-61
2023/09/30 00:38:40;;;;;;;9.02;1.60;;;11.40;99.90;;;;;;5015818;28;20073;-61
2023/09/30 00:41:07;;;;;;;17.90;2.83;;;11.40;99.90;;;;;;5008546;28;20033;-61
2023/09/30 00:43:35;;;;;;;15.05;2.05;;;11.50;99.90;;;;;;5018274;28;20504;-61
2023/09/30 00:46:17;;;;;;;22.23;2.70;;;11.50;99.90;;;;;;5011173;28;20053;-61
2023/09/30 00:48:45;;;;;;;18.83;2.70;;;11.50;99.90;;;;;;5024478;28;20064;-61
2023/09/30 00:51:13;;;;;;;22.55;3.33;;;11.50;99.90;;;;;;5029146;28;20056;-62
2023/09/30 00:53:41;;;;;;;12.18;2.28;;;11.50;99.90;;;;;;5016015;28;20057;-60
2023/09/30 00:56:10;;;;;;;12.30;2.47;;;11.50;99.90;;;;;;5027200;28;20397;-61
2023/09/30 00:58:39;;;;;;;18.25;2.47;;;11.50;99.90;;;;;;5028555;28;20045;-60
2023/09/30 01:01:09;;;;;;;16.85;2.42;;;11.50;99.90;;;;;;5025223;28;20056;-61
2023/09/30 01:03:38;;;;;;;14.73;2.50;;;11.50;99.90;;;;;;5023309;28;20497;-60
2023/09/30 01:06:06;;;;;;;13.35;2.85;;;11.40;99.90;;;;;;5028886;28;20052;-60
2023/09/30 01:08:34;;;;;;;15.65;2.22;;;11.40;99.90;;;;;;5019002;28;20045;-60
2023/09/30 01:11:02;;;;;;;12.35;2.92;;;11.40;99.90;;;;;;5053073;28;20050;-60
2023/09/30 01:13:34;;;;;;;19.55;2.38;;;11.40;99.90;;;;;;5026320;28;20048;-61
2023/09/30 01:16:09;;;;;;;14.05;2.40;;;11.30;99.90;;;;;;5028646;28;20054;-60
2023/09/30 01:18:42;;;;;;;12.88;2.50;;;11.30;99.90;;;;;;5027402;28;20029;-61
2023/09/30 01:21:12;;;;;;;16.92;3.25;;;11.20;99.90;;;;;;5027869;28;20048;-61
2023/09/30 01:23:43;;;;;;;12.80;2.15;;;11.20;99.90;;;;;;5023662;28;20508;-61
2023/09/30 01:26:13;;;;;;;15.02;2.70;;;11.20;99.90;;;;;;5016641;28;20041;-61
2023/09/30 01:28:41;;;;;;;14.75;3.15;;;11.10;99.90;;;;;;5024330;28;20050;-61
2023/09/30 01:31:09;;;;;;;14.02;2.50;;;11.10;99.90;;;;;;5018729;28;20517;-61
2023/09/30 01:33:38;;;;;;;14.65;2.90;;;11.00;99.90;;;;;;5018477;28;20045;-60
2023/09/30 01:36:06;;;;;;;12.88;2.83;;;11.00;99.90;;;;;;5032788;28;20052;-60
2023/09/30 01:38:34;;;;;;;14.25;2.83;;;11.00;99.90;;;;;;5032500;28;20052;-60
2023/09/30 01:41:01;;;;;;;15.77;3.30;;;10.90;99.90;;;;;;5030014;28;20037;-60
2023/09/30 01:43:29;;;;;;;14.98;2.60;;;10.90;99.90;;;;;;5019911;28;20050;-60
2023/09/30 01:45:58;;;;;;;14.93;3.15;;;10.90;99.90;;;;;;5024205;28;20360;-60
2023/09/30 01:48:26;;;;;;;19.40;3.83;;;10.90;99.90;;;;;;5030447;28;20409;-60
2023/09/30 01:50:53;;;;;;;10.90;3.50;;;10.80;99.90;;;;;;5031651;28;20042;-60
2023/09/30 01:53:21;;;;;;;17.02;2.88;;;10.80;99.90;;;;;;5021941;28;20053;-60
2023/09/30 01:55:49;;;;;;;12.98;2.75;;;10.80;99.90;;;;;;5011781;28;20049;-60
2023/09/30 01:58:17;;;;;;;18.05;3.42;;;10.70;99.90;;;;;;5028899;28;20037;-60
2023/09/30 02:00:45;;;;;;;14.70;3.42;;;10.70;99.90;;;;;;5031467;28;20046;-59
2023/09/30 02:03:13;;;;;;;15.90;3.92;;;10.70;99.90;;;;;;5032593;28;20473;-59
2023/09/30 02:05:41;;;;;;;14.82;3.35;;;10.60;99.90;;;;;;5032186;28;20057;-60
2023/09/30 02:08:08;;;;;;;17.50;3.60;;;10.60;99.90;;;;;;5032453;28;20041;-59
2023/09/30 02:10:36;;;;;;;13.73;3.65;;;10.60;99.90;;;;;;5032907;28;20405;-59
2023/09/30 02:13:06;;;;;;;12.02;3.25;;;10.50;99.90;;;;;;5032246;28;20071;-60
2023/09/30 02:15:34;;;;;;;;;;;10.60;99.90;;;;;;5029103;28;20502;-59
2023/09/30 02:18:03;;;;;;;11.55;3.08;;;10.50;99.90;;;;;;5043637;28;19921;-60
2023/09/30 02:20:31;;;;;;;18.55;2.90;;;10.50;99.90;;;;;;5031449;28;20068;-60
2023/09/30 02:23:02;;;;;;;17.50;3.53;;;10.50;99.90;;;;;;5032191;28;20056;-60
2023/09/30 02:25:30;;;;;;;15.32;3.63;;;10.50;99.90;;;;;;5031539;28;20489;-60
2023/09/30 02:27:58;;;;;;;11.43;2.78;;;10.50;99.90;;;;;;5031992;28;20073;-60
2023/09/30 02:30:27;;;;;;;13.38;2.88;;;10.50;99.90;;;;;;5031024;28;20041;-60
2023/09/30 02:32:56;;;;;;;14.05;2.85;;;10.60;99.90;;;;;;5033721;28;20041;-60
2023/09/30 02:35:26;;;;;;;18.67;3.40;;;10.50;99.90;;;;;;5042330;28;20061;-60
2023/09/30 02:37:54;;;;;;;11.63;3.20;;;10.50;99.90;;;;;;5030925;28;20480;-59
2023/09/30 02:40:24;;;;;;;18.13;3.28;;;10.50;99.90;;;;;;5015290;28;20049;-60
2023/09/30 02:42:52;;;;;;;18.38;3.08;;;10.50;99.90;;;;;;5030093;28;20543;-60
2023/09/30 02:45:20;;;;;;;19.00;3.63;;;10.50;99.90;;;;;;5023884;28;20049;-60
2023/09/30 02:47:48;;;;;;;15.52;2.83;;;10.50;99.90;;;;;;5018672;28;20038;-60
2023/09/30 02:50:16;;;;;;;13.80;2.90;;;10.50;99.90;;;;;;5025385;28;20076;-60
2023/09/30 02:52:43;;;;;;;15.82;3.63;;;10.40;99.90;;;;;;5018009;28;20046;-60
2023/09/30 02:55:12;;;;;;;23.33;3.20;;;10.40;99.90;;;;;;5024735;28;20052;-60
2023/09/30 02:57:40;;;;;;;18.02;3.00;;;10.40;99.90;;;;;;5052865;28;20498;-59
2023/09/30 03:00:25;;;;;;;17.42;2.92;;;10.40;99.90;;;;;;5054997;28;20052;-60
2023/09/30 03:02:54;;;;;;;24.58;3.00;;;10.40;99.90;;;;;;5028318;28;20045;-59
2023/09/30 03:05:23;;;;;;;12.98;2.70;;;10.40;99.90;;;;;;5047639;28;20053;-59
2023/09/30 03:07:51;;;;;;;20.23;3.70;;;10.30;99.90;;;;;;5031905;28;20569;-59
2023/09/30 03:10:23;;;;;;;16.33;3.00;;;10.30;99.90;;;;;;5030702;28;20046;-59
2023/09/30 03:12:52;;;;;;;16.90;2.67;;;10.30;99.90;;;;;;5030208;28;20046;-60
2023/09/30 03:15:20;;;;;;;12.32;2.75;;;10.30;99.90;;;;;;5018053;28;20057;-60
2023/09/30 03:17:48;;;;;;;8.77;2.25;;;10.30;99.90;;;;;;5036915;28;20064;-60
2023/09/30 03:20:21;;;;;;;15.30;2.83;;;10.30;99.90;;;;;;5031448;28;20041;-61
2023/09/30 03:22:48;;;;;;;13.85;2.45;;;10.30;99.90;;;;;;5029783;28;20038;-60
2023/09/30 03:25:18;;;;;;;10.25;2.25;;;10.30;99.90;;;;;;5031516;28;20052;-60
2023/09/30 03:27:46;;;;;;;;;;;10.40;99.90;;;;;;5031918;28;20057;-60
2023/09/30 03:30:15;;;;;;;11.38;2.20;;;10.30;99.90;;;;;;5029745;28;19921;-60
2023/09/30 03:32:44;;;;;;;13.73;2.50;;;10.30;99.90;;;;;;5030989;28;20052;-60
2023/09/30 03:35:16;;;;;;;22.15;3.13;;;10.30;99.90;;;;;;5030985;28;20311;-59
2023/09/30 03:37:46;;;;;;;10.85;2.55;;;10.30;99.90;;;;;;5015904;28;20398;-60
2023/09/30 03:40:18;;;;;;;14.75;2.67;;;10.30;99.90;;;;;;5026896;28;20038;-60
2023/09/30 03:42:51;;;;;;;22.67;3.05;;;10.30;99.90;;;;;;5034947;28;20041;-60
2023/09/30 03:45:18;;;;;;;14.65;2.25;;;10.40;99.90;;;;;;5030800;28;20042;-59
2023/09/30 03:47:47;;;;;;;9.60;2.17;;;10.40;99.90;;;;;;5017943;28;20049;-60
2023/09/30 03:50:16;;;;;;;12.07;3.00;;;10.40;99.90;;;;;;5036671;28;20594;-59
2023/09/30 03:52:44;;;;;;;13.85;2.45;;;10.40;99.90;;;;;;5030157;28;20053;-59
2023/09/30 03:55:17;;;;;;;12.15;2.42;;;10.40;99.90;;;;;;5030814;28;20517;-60
2023/09/30 03:57:48;;;;;;;14.10;2.47;;;10.40;99.90;;;;;;5037713;28;20040;-59
2023/09/30 04:00:19;;;;;;;15.73;2.27;;;10.40;99.90;;;;;;5037600;28;20056;-60
2023/09/30 04:02:49;;;;;;;11.85;2.80;;;10.40;99.90;;;;;;5035765;28;20294;-60
2023/09/30 04:05:18;;;;;;;12.77;2.10;;;10.40;99.90;;;;;;5032131;28;20049;-60
2023/09/30 04:07:47;;;;;;;15.35;2.67;;;10.40;99.90;;;;;;5019390;28;20038;-60
2023/09/30 04:10:15;;;;;;;25.80;3.33;;;10.40;99.90;;;;;;5017987;28;20053;-61
2023/09/30 04:12:45;;;;;;;10.88;2.47;;;10.40;99.90;;;;;;5027811;28;20046;-60
2023/09/30 04:15:13;;;;;;;15.05;3.20;;;10.40;99.90;;;;;;5032160;28;20056;-60
2023/09/30 04:17:41;;;;;;;16.13;2.90;;;10.40;99.90;;;;;;5019029;28;20040;-60
2023/09/30 04:20:10;;;;;;;9.68;2.08;;;10.40;99.90;;;;;;5026531;28;20053;-59
2023/09/30 04:22:38;;;;;;;11.07;2.53;;;10.40;99.90;;;;;;5021011;28;20042;-59
2023/09/30 04:25:09;;;;;;;14.90;2.92;;;10.30;99.90;;;;;;5026649;28;20037;-59
2023/09/30 04:27:37;;;;;;;12.73;2.70;;;10.40;99.90;;;;;;5036543;28;20611;-59
2023/09/30 04:30:11;;;;;;;16.33;3.03;;;10.30;99.90;;;;;;5035938;28;20045;-60
2023/09/30 04:32:39;;;;;;;14.73;3.42;;;10.30;99.90;;;;;;5033853;28;20061;-60
2023/09/30 04:35:08;;;;;;;23.17;3.63;;;10.30;99.90;;;;;;5039160;28;20041;-59
2023/09/30 04:37:39;;;;;;;10.70;2.88;;;10.30;99.90;;;;;;5031025;28;20041;-59
2023/09/30 04:40:15;;;;;;;10.82;2.88;;;10.20;99.90;;;;;;5019465;28;20050;-59
2023/09/30 04:42:46;;;;;;;15.73;2.95;;;10.30;99.90;;;;;;5017290;28;20054;-59
2023/09/30 04:45:24;;;;;;;8.90;2.47;;;10.30;99.90;;;;;;5029509;28;20045;-60
2023/09/30 04:47:53;;;;;;;14.65;2.88;;;10.20;99.90;;;;;;5016771;28;20402;-60
2023/09/30 04:50:21;;;;;;;11.65;2.58;;;10.20;99.90;;;;;;5014454;28;20041;-59
2023/09/30 04:52:51;;;;;;;13.60;3.40;;;10.20;99.90;;;;;;5018027;28;20041;-60
2023/09/30 04:55:19;;;;;;;13.80;2.67;;;10.30;99.90;;;;;;5030415;28;20049;-59
2023/09/30 04:57:50;;;;;;;15.82;3.10;;;10.20;99.90;;;;;;5028535;28;20045;-60
2023/09/30 05:00:25;;;;;;;15.77;2.85;;;10.20;99.90;;;;;;5014752;28;20041;-59
2023/09/30 05:02:55;;;;;;;17.77;3.20;;;10.20;99.90;;;;;;5018888;28;20412;-60
2023/09/30 05:05:23;;;;;;;17.20;3.83;;;10.20;99.90;;;;;;5015224;28;20536;-61
2023/09/30 05:07:51;;;;;;;12.27;3.30;;;10.20;99.90;;;;;;5012179;28;20049;-60
2023/09/30 05:10:19;;;;;;;13.10;3.50;;;10.20;99.90;;;;;;5030216;28;20045;-60
2023/09/30 05:12:46;;;;;;;15.48;3.50;;;10.20;99.90;;;;;;5029565;28;20048;-60
2023/09/30 05:15:16;;;;;;;11.40;3.35;;;10.20;99.90;;;;;;5022605;28;20050;-60
2023/09/30 05:17:45;;;;;;;;;;;10.20;99.90;;;;;;5033587;28;20053;-60
2023/09/30 05:20:17;;;;;;;18.05;2.88;;;10.30;99.90;;;;;;5024861;28;19921;-60
2023/09/30 05:22:46;;;;;;;11.65;3.05;;;10.20;99.90;;;;;;5007093;28;20045;-60
2023/09/30 05:25:16;;;;;;;10.70;3.00;;;10.20;99.90;;;;;;5024503;28;20056;-60
2023/09/30 05:27:45;;;;;;;9.77;2.15;;;10.20;99.90;;;;;;5026510;28;20061;-60
2023/09/30 05:30:15;;;;;;;13.18;3.03;;;10.20;99.90;;;;;;5026180;28;20042;-59
2023/09/30 05:32:43;;;;;;;20.25;3.17;;;10.20;99.90;;;;;;5024755;28;20129;-60
2023/09/30 05:35:16;;;;;;;16.20;3.40;;;10.20;99.90;;;;;;5030911;28;20441;-60
2023/09/30 05:37:45;;;;;;;15.07;3.53;;;10.20;99.90;;;;;;5023690;28;20049;-60
2023/09/30 05:40:24;;;;;;;20.80;3.60;;;10.20;99.90;;;;;;5034057;28;20057;-60
2023/09/30 05:43:00;;;;;;;13.88;4.05;;;10.20;99.90;;;;;;5010429;28;20057;-60
2023/09/30 05:45:31;;;;;;;14.60;3.15;;;10.20;99.90;;;;;;5016553;28;20045;-60
2023/09/30 05:48:02;;;;;;;14.05;2.92;;;10.20;99.90;;;;;;5029106;28;20041;-61
2023/09/30 05:50:31;;;;;;;13.23;2.90;;;10.20;99.90;;;;;;5014092;28;20064;-59
2023/09/30 05:52:59;;;;;;;15.90;2.95;;;10.20;99.90;;;;;;5020719;28;20045;-60
2023/09/30 05:55:28;;;;;;;12.57;2.65;;;10.20;99.90;;;;;;5027200;28;20049;-60
2023/09/30 05:57:56;;;;;;;8.30;2.72;;;10.20;99.90;;;;;;5035108;28;20041;-60
2023/09/30 06:00:35;;;;;;;9.07;2.75;;;10.20;99.90;;;;;;5028564;28;20049;-60
2023/09/30 06:03:07;;;;;;;14.15;2.78;;;10.20;99.90;;;;;;5017036;28;20045;-60
2023/09/30 06:05:42;;;;;;;19.02;3.08;;;10.20;99.90;;;;;;5034578;28;20401;-60
2023/09/30 06:08:15;;;;;;;18.23;3.30;;;10.20;99.90;;;;;;5038743;28;20484;-60
2023/09/30 06:10:43;;;;;;;14.45;2.58;;;10.20;99.90;;;;;;5039975;28;20049;-59
2023/09/30 06:13:13;;;;;;;8.77;2.55;;;10.20;99.90;;;;;;5034220;28;20041;-59
2023/09/30 06:15:42;;;;;;;12.50;2.88;;;10.10;99.90;;;;;;5021948;28;20052;-59
2023/09/30 06:18:13;;;;;;;12.05;3.65;;;10.10;99.90;;;;;;5047603;28;20049;-59
2023/09/30 06:20:42;;;;;;;11.02;2.92;;;10.10;99.90;;;;;;5048406;28;20041;-60
2023/09/30 06:23:09;;;;;;;11.50;3.05;;;10.10;99.90;;;;;;5033038;28;20057;-60
2023/09/30 06:25:42;;;;;;;13.40;2.60;;;10.10;99.90;;;;;;5027775;28;20034;-60
2023/09/30 06:28:10;;;;;;;16.23;2.90;;;10.10;99.90;;;;;;5027539;28;20819;-60
2023/09/30 06:30:41;;;;;;;15.88;3.10;;;10.20;99.90;;;;;;5014886;28;20049;-60
2023/09/30 06:33:11;;;;;;;11.63;2.78;;;10.20;99.90;;;;;;5028610;28;20053;-60
2023/09/30 06:35:50;;;;;;;12.73;2.47;;;10.20;99.90;;;;;;5025836;28;20053;-59
2023/09/30 06:38:20;;;;;;;14.88;2.80;;;10.30;99.90;;;;;;5034174;28;20514;-59
2023/09/30 06:40:48;;;;;;;13.15;2.40;;;10.30;99.90;;;;;;5009737;28;20046;-59
2023/09/30 06:43:17;;;;;;;18.58;2.95;;;10.30;99.90;;;;;;5020403;28;20046;-60
2023/09/30 06:45:46;;;;;;;13.73;3.22;;;10.40;99.90;;;;;;5020083;28;20050;-60
2023/09/30 06:48:15;;;;;;;16.25;2.63;;;10.40;99.90;;;;;;5017031;28;20374;-60
2023/09/30 06:50:48;;;;;;;9.63;2.20;;;10.40;99.90;;;;;;5023257;28;20057;-60
2023/09/30 06:53:18;;;;;;;19.83;3.08;;;10.50;99.90;;;;;;5021531;28;20477;-60
2023/09/30 06:55:46;;;;;;;13.43;2.50;;;10.50;99.90;;;;;;5019542;28;20072;-60
2023/09/30 06:58:14;;;;;;;15.93;2.40;;;10.60;99.90;;;;;;5027488;28;20044;-60
2023/09/30 07:00:42;;;;;;;19.33;3.35;;;10.60;99.90;;;;;;5010570;28;20046;-61
2023/09/30 07:03:10;;;;;;;11.52;2.55;;;10.70;99.90;;;;;;5013661;28;20536;-61
2023/09/30 07:05:40;;;;;;;14.77;3.05;;;10.70;99.90;;;;;;5016909;28;20037;-60
2023/09/30 07:08:08;;;;;;;15.45;3.30;;;10.80;99.90;;;;;;5022978;28;20060;-60
2023/09/30 07:10:36;;;;;;;15.45;3.75;;;10.90;99.90;;;;;;5016537;28;20473;-61
2023/09/30 07:13:06;;;;;;;13.52;3.20;;;11.00;99.90;;;;;;5034675;28;20060;-60
2023/09/30 07:15:34;;;;;;;10.20;2.72;;;11.10;99.90;;;;;;5028883;28;20041;-61
2023/09/30 07:18:02;;;;;;;14.95;3.22;;;11.10;99.90;;;;;;5036555;28;20500;-60
2023/09/30 07:20:32;;;;;;;18.35;3.60;;;11.20;99.90;;;;;;5028849;28;20053;-60
2023/09/30 07:23:01;;;;;;;15.75;4.68;;;11.20;99.90;;;;;;5024545;28;20049;-60
2023/09/30 07:25:45;;;;;;;11.25;2.80;;;11.30;99.90;;;;;;5026025;28;20033;-60
2023/09/30 07:28:13;;;;;;;19.15;2.80;;;11.30;99.90;;;;;;5025986;28;20477;-60
2023/09/30 07:30:41;;;;;;;13.82;2.90;;;11.40;99.90;;;;;;5025847;28;20389;-60
2023/09/30 07:33:08;;;;;;;10.82;2.63;;;11.50;99.90;;;;;;5026457;28;20054;-60
2023/09/30 07:35:38;;;;;;;18.73;2.90;;;11.50;99.90;;;;;;5026742;28;20389;-60
2023/09/30 07:38:06;;;;;;;13.82;3.22;;;11.50;99.90;;;;;;5034022;28;20053;-60
2023/09/30 07:40:37;;;;;;;9.70;2.72;;;11.50;99.90;;;;;;5027106;28;20058;-60
2023/09/30 07:43:05;;;;;;;16.95;3.50;;;11.60;99.90;;;;;;5026394;28;20052;-60
2023/09/30 07:45:35;;;;;;;11.50;3.25;;;11.60;99.90;;;;;;5025834;28;20489;-61
2023/09/30 07:48:04;;;;;;;9.00;2.33;;;11.70;99.90;;;;;;5018276;28;20042;-60
2023/09/30 07:50:33;;;;;;;14.82;2.92;;;11.70;99.90;;;;;;5008157;28;20046;-60
2023/09/30 07:53:02;;;;;;;15.23;2.58;;;11.80;99.90;;;;;;5011939;28;20045;-61
2023/09/30 07:55:33;;;;;;;19.15;3.33;;;11.80;99.90;;;;;;5020713;28;20061;-60
2023/09/30 07:58:01;;;;;;;14.50;2.72;;;11.90;99.90;;;;;;5022215;28;20562;-61
2023/09/30 08:00:29;;;;;;;15.90;2.70;;;11.90;99.90;;;;;;5027450;28;20045;-60
2023/09/30 08:03:00;;;;;;;15.18;2.90;;;12.00;99.90;;;;;;5027448;28;20057;-61
2023/09/30 08:05:28;;;;;;;12.05;2.63;;;12.00;99.90;;;;;;5028144;28;20042;-60
2023/09/30 08:07:56;;;;;;;17.38;3.28;;;12.10;99.90;;;;;;5032628;28;20037;-61
2023/09/30 08:10:23;;;;;;;12.00;2.85;;;12.10;99.90;;;;;;5021606;28;20053;-60
2023/09/30 08:12:51;;;;;;;10.25;2.63;;;12.10;99.90;;;;;;5022308;28;20044;-61
2023/09/30 08:15:19;;;;;;;13.15;2.40;;;12.20;99.90;;;;;;5020887;28;20045;-60
2023/09/30 08:17:47;;;;;;;14.82;2.40;;;12.30;99.90;;;;;;5029199;28;20060;-61
2023/09/30 08:20:15;;;;;;;16.58;2.17;;;12.40;99.90;;;;;;5027305;28;20053;-61
2023/09/30 08:22:42;;;;;;;19.67;3.15;;;12.40;99.90;;;;;;5031059;28;20045;-60
2023/09/30 08:25:10;;;;;;;17.02;3.08;;;12.60;99.90;;;;;;5048079;28;20037;-61
2023/09/30 08:27:38;;;;;;;16.00;3.17;;;12.70;99.90;;;;;;5050990;28;20397;-62
2023/09/30 08:30:07;;;;;;;14.68;2.58;;;12.80;99.90;;;;;;5034764;28;20053;-64
2023/09/30 08:32:35;;;;;;;12.18;2.47;;;12.90;99.90;;;;;;5030618;28;20049;-61
2023/09/30 08:35:03;;;;;;;17.13;2.60;;;12.90;99.90;;;;;;5043275;28;20063;-61
2023/09/30 08:37:31;;;;;;;11.75;2.50;;;13.00;99.90;;;;;;5050649;28;20082;-61
2023/09/30 08:39:59;;;;;;;13.20;2.25;;;13.00;99.90;;;;;;5026051;28;20393;-61
2023/09/30 08:42:32;;;;;;;10.57;2.30;;;13.00;99.90;;;;;;5030939;28;20050;-61
2023/09/30 08:45:01;;;;;;;15.30;2.28;;;13.10;99.90;;;;;;5030783;28;20045;-61
2023/09/30 08:47:30;;;;;;;14.73;1.85;;;13.20;99.90;;;;;;5032092;28;20068;-61
2023/09/30 08:50:05;;;;;;;14.32;2.13;;;13.20;99.90;;;;;;5036150;28;20049;-61
2023/09/30 08:52:37;;;;;;;12.27;2.10;;;13.20;99.90;;;;;;5030735;28;20497;-61
2023/09/30 08:55:08;;;;;;;13.65;2.42;;;13.30;99.90;;;;;;5011004;28;20552;-61
2023/09/30 08:57:48;;;;;;;13.93;2.10;;;13.40;99.90;;;;;;5017470;28;20503;-61
2023/09/30 09:00:16;;;;;;;11.50;1.85;;;13.50;99.90;;;;;;5033985;28;20064;-61
2023/09/30 09:02:44;;;;;;;11.73;2.13;;;13.60;99.90;;;;;;5036426;28;20047;-61
2023/09/30 09:05:12;;;;;;;12.88;2.40;;;13.60;99.90;;;;;;5050587;28;20045;-61
2023/09/30 09:07:39;;;;;;;14.88;2.65;;;13.70;99.90;;;;;;5029256;28;20050;-62
2023/09/30 09:10:15;;;;;;;11.85;1.83;;;13.70;99.90;;;;;;5022246;28;20057;-62
2023/09/30 09:12:42;;;;;;;11.90;2.22;;;13.70;99.90;;;;;;5030460;28;20060;-61
2023/09/30 09:15:23;;;;;;;8.35;1.90;;;13.80;99.90;;;;;;5029525;28;20045;-61
2023/09/30 09:17:52;;;;;;;;;;;13.90;99.90;;;;;;5030656;28;20226;-60
2023/09/30 09:20:22;;;;;;;11.15;2.03;;;14.00;99.90;;;;;;5030316;28;19928;-62
2023/09/30 09:22:53;;;;;;;;;;;14.00;99.90;;;;;;5037017;28;20045;-60
2023/09/30 09:25:22;;;;;;;11.40;1.60;;;14.10;99.90;;;;;;5010957;28;19922;-60
2023/09/30 09:27:51;;;;;;;14.85;3.05;;;14.20;99.90;;;;;;5030899;28;20528;-60
2023/09/30 09:30:22;;;;;;;12.00;2.15;;;14.30;99.90;;;;;;5025982;28;20057;-60
2023/09/30 09:33:04;;;;;;;14.00;1.60;;;14.40;99.90;;;;;;5023792;28;20045;-60
2023/09/30 09:35:35;;;;;;;15.52;2.28;;;14.40;99.90;;;;;;5013018;28;20045;-61
2023/09/30 09:38:04;;;;;;;10.20;2.28;;;14.50;99.90;;;;;;5020762;28;20045;-61
2023/09/30 09:40:37;;;;;;;12.98;2.28;;;14.40;99.90;;;;;;5010332;28;20049;-60
2023/09/30 09:43:05;;;;;;;9.27;1.88;;;14.50;99.90;;;;;;5026949;28;20052;-61
2023/09/30 09:45:36;;;;;;;10.77;1.95;;;14.50;99.90;;;;;;5025966;28;20045;-61
2023/09/30 09:48:04;;;;;;;10.82;1.90;;;14.60;99.90;;;;;;5045758;28;20045;-61
2023/09/30 09:50:33;;;;;;;9.15;1.73;;;14.70;99.90;;;;;;5027316;28;20567;-61
2023/09/30 09:53:05;;;;;;;21.42;4.10;;;14.80;99.90;;;;;;5029365;28;20057;-61
2023/09/30 09:55:36;;;;;;;18.23;2.60;;;14.80;99.90;;;;;;5024995;28;20049;-61
2023/09/30 09:58:07;;;;;;;10.40;2.55;;;14.90;99.90;;;;;;5028706;28;20057;-60
2023/09/30 10:00:36;;;;;;;11.82;2.03;;;14.90;99.90;;;;;;5011154;28;20054;-62
2023/09/30 10:03:04;;;;;;;9.63;1.70;;;14.90;99.90;;;;;;5024009;28;20053;-61
2023/09/30 10:05:33;;;;;;;14.43;3.00;;;15.00;99.90;;;;;;5024697;28;20045;-61
2023/09/30 10:08:09;;;;;;;14.90;2.47;;;15.00;99.90;;;;;;5018898;28;20046;-61
2023/09/30 10:10:38;;;;;;;16.75;2.72;;;15.10;99.90;;;;;;5024858;28;20049;-61
2023/09/30 10:13:06;;;;;;;8.73;1.83;;;15.50;99.90;;;;;;5008708;28;20042;-61
2023/09/30 10:15:37;;;;;;;10.50;2.25;;;15.30;99.90;;;;;;5008311;28;20052;-61
2023/09/30 10:18:06;;;;;;;;;;;15.30;99.90;;;;;;5023797;28;20064;-61
2023/09/30 10:20:41;;;;;;;39.20;4.20;;;15.40;99.90;;;;;;5044255;28;19920;-61
2023/09/30 10:23:22;;;;;;;10.85;1.77;;;15.40;99.90;;;;;;5028399;28;21111;-60
2023/09/30 10:25:54;;;;;;;16.73;3.40;;;15.40;99.90;;;;;;5025578;28;20046;-61
2023/09/30 10:28:50;;;;;;;12.35;2.63;;;15.50;99.90;;;;;;5019081;28;20489;-61
2023/09/30 10:31:25;;;;;;;19.25;2.60;;;15.60;99.90;;;;;;5027760;28;20821;-61
2023/09/30 10:33:59;;;;;;;19.05;3.35;;;15.60;99.90;;;;;;5041475;28;20052;-61
2023/09/30 10:36:39;;;;;;;13.90;2.25;;;15.60;99.90;;;;;;5038138;28;20445;-61
2023/09/30 10:39:14;;;;;;;21.42;3.05;;;15.70;99.90;;;;;;5043157;28;20412;-61
2023/09/30 10:41:45;;;;;;;22.65;3.70;;;15.70;99.90;;;;;;5028434;28;20049;-61
2023/09/30 10:44:22;;;;;;;10.93;2.08;;;15.70;99.90;;;;;;5011235;28;20049;-61
2023/09/30 10:46:50;;;;;;;12.15;1.90;;;15.70;99.90;;;;;;5008270;28;20046;-61
2023/09/30 10:49:24;;;;;;;14.45;1.80;;;15.70;99.90;;;;;;5019958;28;20100;-61
2023/09/30 10:51:54;;;;;;;11.30;2.22;;;15.70;99.90;;;;;;5024566;28;20049;-61
2023/09/30 10:54:23;;;;;;;10.18;2.50;;;15.80;99.90;;;;;;5024313;28;20042;-60
2023/09/30 10:56:54;;;;;;;15.00;2.40;;;15.80;99.90;;;;;;5009107;28;20505;-61
2023/09/30 10:59:23;;;;;;;38.08;5.45;;;15.80;99.90;;;;;;5026103;28;20056;-61
2023/09/30 11:01:53;;;;;;;14.45;2.05;;;15.70;99.90;;;;;;5028735;28;20056;-62
2023/09/30 11:04:21;;;;;;;12.73;2.42;;;15.80;99.90;;;;;;5040622;28;20404;-60
2023/09/30 11:06:51;;;;;;;12.25;2.67;;;15.70;99.90;;;;;;5030977;28;20516;-61
2023/09/30 11:09:21;;;;;;;17.77;3.35;;;15.70;99.90;;;;;;5044920;28;20044;-61
2023/09/30 11:11:52;;;;;;;19.80;3.08;;;15.60;99.90;;;;;;5048428;28;20064;-61
2023/09/30 11:14:23;;;;;;;23.50;3.22;;;15.50;99.90;;;;;;5007186;28;20050;-62
2023/09/30 11:16:59;;;;;;;22.77;2.90;;;15.50;99.90;;;;;;5008762;28;20064;-61
2023/09/30 11:19:34;;;;;;;17.17;3.00;;;15.50;99.90;;;;;;5025820;28;20516;-61
2023/09/30 11:22:02;;;;;;;13.18;2.90;;;15.50;99.90;;;;;;5026765;28;20044;-61
2023/09/30 11:24:37;;;;;;;17.83;2.70;;;15.60;99.90;;;;;;5028110;28;20049;-61
2023/09/30 11:27:05;;;;;;;15.30;2.35;;;15.60;99.90;;;;;;5028393;28;20046;-61
2023/09/30 11:29:33;;;;;;;12.05;2.95;;;15.50;99.90;;;;;;5010165;28;20050;-61
2023/09/30 11:32:02;;;;;;;10.20;2.45;;;15.50;99.90;;;;;;5008793;28;20490;-61
2023/09/30 11:34:34;;;;;;;9.38;2.30;;;15.50;99.90;;;;;;5036869;28;20052;-61
2023/09/30 11:37:03;;;;;;;14.25;2.42;;;15.50;99.90;;;;;;5048063;28;20049;-61
2023/09/30 11:39:33;;;;;;;15.43;3.40;;;15.50;99.90;;;;;;5028711;28;20065;-62
2023/09/30 11:42:01;;;;;;;15.98;3.88;;;15.50;99.90;;;;;;5027131;28;20382;-61
2023/09/30 11:44:30;;;;;;;11.27;2.15;;;15.50;99.90;;;;;;5012044;28;20045;-61
2023/09/30 11:47:04;;;;;;;14.90;2.17;;;15.40;99.90;;;;;;5008152;28;20050;-62
2023/09/30 11:49:40;;;;;;;16.88;2.13;;;15.50;99.90;;;;;;5042691;28;20041;-61
2023/09/30 11:52:10;;;;;;;9.32;1.40;;;15.50;99.90;;;;;;5046223;28;20500;-61
2023/09/30 11:54:43;;;;;;;9.73;3.05;;;15.60;99.90;;;;;;5026954;28;20045;-62
2023/09/30 11:57:18;;;;;;;11.93;2.17;;;15.60;99.90;;;;;;5028114;28;20049;-61
2023/09/30 11:59:46;;;;;;;10.23;1.95;;;15.70;99.90;;;;;;5020297;28;20052;-61
2023/09/30 12:02:16;;;;;;;9.60;2.03;;;15.70;99.90;;;;;;5030525;28;20500;-61
2023/09/30 12:04:47;;;;;;;7.68;2.30;;;15.70;99.90;;;;;;5042724;28;20045;-62
2023/09/30 12:07:15;;;;;;;13.30;2.40;;;15.70;99.90;;;;;;5051530;28;20037;-61
2023/09/30 12:09:43;;;;;;;10.13;2.35;;;15.70;99.90;;;;;;5031402;28;20050;-62
2023/09/30 12:12:12;;;;;;;11.48;2.03;;;15.70;99.90;;;;;;5030901;28;20045;-61
2023/09/30 12:14:40;;;;;;;8.35;2.78;;;15.70;99.90;;;;;;5015211;28;20046;-61
2023/09/30 12:17:10;;;;;;;12.10;2.53;;;15.70;99.90;;;;;;5043826;28;20396;-61
2023/09/30 12:19:40;;;;;;;8.48;1.85;;;15.70;99.90;;;;;;5051083;28;20680;-62
2023/09/30 12:22:10;;;;;;;7.18;1.67;;;15.70;99.90;;;;;;5041151;28;20056;-61
2023/09/30 12:24:39;;;;;;;12.02;1.67;;;15.70;99.90;;;;;;5029710;28;20061;-62
2023/09/30 12:27:07;;;;;;;7.80;1.60;;;15.60;99.90;;;;;;5031451;28;20041;-61
2023/09/30 12:29:38;;;;;;;11.52;2.10;;;15.50;99.90;;;;;;5018886;28;20303;-61
2023/09/30 12:32:06;;;;;;;11.30;1.85;;;15.50;99.90;;;;;;5015394;28;20050;-62
2023/09/30 12:34:35;;;;;;;8.65;1.60;;;15.40;99.90;;;;;;5050931;28;20045;-61
2023/09/30 12:37:03;;;;;;;10.43;2.42;;;15.40;99.90;;;;;;5051556;28;20064;-61
2023/09/30 12:39:33;;;;;;;11.02;2.50;;;15.30;99.90;;;;;;5049384;28;20045;-61
2023/09/30 12:42:01;;;;;;;10.57;2.05;;;15.30;99.90;;;;;;5049629;28;20052;-59
2023/09/30 12:44:29;;;;;;;7.00;2.08;;;15.30;99.90;;;;;;5018857;28;20325;-59
2023/09/30 12:46:58;;;;;;;12.77;2.55;;;15.10;99.90;;;;;;5011748;28;20045;-59
2023/09/30 12:49:25;;;;;;;7.95;2.25;;;15.10;99.90;;;;;;5031367;28;20046;-58
2023/09/30 12:51:53;;;;;;;12.05;2.30;;;15.00;99.90;;;;;;5029941;28;20044;-59
2023/09/30 12:54:21;;;;;;;16.05;2.33;;;14.90;99.90;;;;;;5049579;28;20088;-59